sensor_id;sensor_type;location;lat;lon;timestamp;pressure;altitude;pressure_sealevel;temperature;humidity
48862;BME280;34681;49.188;-0.374;2023-04-26T00:01:06;101467.75;;;10.51;60.96
48862;BME280;34681;49.188;-0.374;2023-04-26T00:03:32;101467.44;;;10.65;60.68
48862;BME280;34681;49.188;-0.374;2023-04-26T00:05:59;101463.59;;;10.57;60.73
48862;BME280;34681;49.188;-0.374;2023-04-26T00:08:29;101469.16;;;10.98;59.92
48862;BME280;34681;49.188;-0.374;2023-04-26T00:10:55;101464.97;;;10.94;59.54
48862;BME280;34681;49.188;-0.374;2023-04-26T00:13:20;101461.81;;;10.67;60.29
48862;BME280;34681;49.188;-0.374;2023-04-26T00:15:45;101464.22;;;10.60;60.41
48862;BME280;34681;49.188;-0.374;2023-04-26T00:18:11;101461.50;;;10.60;60.51
48862;BME280;34681;49.188;-0.374;2023-04-26T00:20:36;101465.41;;;10.35;61.14
48862;BME280;34681;49.188;-0.374;2023-04-26T00:23:02;101466.38;;;10.46;61.54
48862;BME280;34681;49.188;-0.374;2023-04-26T00:25:28;101462.88;;;10.87;60.24
48862;BME280;34681;49.188;-0.374;2023-04-26T00:27:53;101461.94;;;10.77;60.28
48862;BME280;34681;49.188;-0.374;2023-04-26T00:30:20;101459.34;;;10.64;60.66
48862;BME280;34681;49.188;-0.374;2023-04-26T00:32:45;101470.13;;;10.77;60.55
48862;BME280;34681;49.188;-0.374;2023-04-26T00:35:11;101466.38;;;11.10;59.15
48862;BME280;34681;49.188;-0.374;2023-04-26T00:37:37;101466.63;;;11.07;59.63
48862;BME280;34681;49.188;-0.374;2023-04-26T00:40:02;101454.44;;;10.79;60.03
48862;BME280;34681;49.188;-0.374;2023-04-26T00:42:28;101461.13;;;10.54;60.89
48862;BME280;34681;49.188;-0.374;2023-04-26T00:44:53;101458.53;;;10.52;61.07
48862;BME280;34681;49.188;-0.374;2023-04-26T00:47:21;101455.53;;;10.55;61.03
48862;BME280;34681;49.188;-0.374;2023-04-26T00:49:47;101465.91;;;10.73;60.67
48862;BME280;34681;49.188;-0.374;2023-04-26T00:52:12;101464.00;;;10.52;61.06
48862;BME280;34681;49.188;-0.374;2023-04-26T00:54:38;101469.06;;;10.68;61.04
48862;BME280;34681;49.188;-0.374;2023-04-26T00:57:03;101455.38;;;10.68;60.84
48862;BME280;34681;49.188;-0.374;2023-04-26T00:59:31;101454.09;;;10.72;61.19
48862;BME280;34681;49.188;-0.374;2023-04-26T01:01:57;101449.22;;;10.44;61.46
48862;BME280;34681;49.188;-0.374;2023-04-26T01:04:23;101452.25;;;10.29;62.33
48862;BME280;34681;49.188;-0.374;2023-04-26T01:06:50;101437.47;;;10.09;63.02
48862;BME280;34681;49.188;-0.374;2023-04-26T01:09:16;101436.97;;;10.04;63.37
48862;BME280;34681;49.188;-0.374;2023-04-26T01:11:42;101433.81;;;10.31;62.73
48862;BME280;34681;49.188;-0.374;2023-04-26T01:14:09;101441.13;;;10.53;61.84
48862;BME280;34681;49.188;-0.374;2023-04-26T01:16:34;101445.66;;;10.64;61.48
48862;BME280;34681;49.188;-0.374;2023-04-26T01:19:07;101438.50;;;10.52;61.84
48862;BME280;34681;49.188;-0.374;2023-04-26T01:21:33;101442.28;;;10.72;61.03
48862;BME280;34681;49.188;-0.374;2023-04-26T01:23:59;101441.28;;;10.73;61.21
48862;BME280;34681;49.188;-0.374;2023-04-26T01:26:24;101439.03;;;10.78;60.73
48862;BME280;34681;49.188;-0.374;2023-04-26T01:28:50;101433.34;;;10.69;61.22
48862;BME280;34681;49.188;-0.374;2023-04-26T01:31:15;101429.44;;;10.51;61.75
48862;BME280;34681;49.188;-0.374;2023-04-26T01:33:41;101435.22;;;10.58;61.62
48862;BME280;34681;49.188;-0.374;2023-04-26T01:36:09;101437.28;;;10.77;61.16
48862;BME280;34681;49.188;-0.374;2023-04-26T01:38:35;101436.00;;;10.81;61.21
48862;BME280;34681;49.188;-0.374;2023-04-26T01:41:00;101441.41;;;10.92;60.58
48862;BME280;34681;49.188;-0.374;2023-04-26T01:43:25;101444.50;;;10.78;60.58
48862;BME280;34681;49.188;-0.374;2023-04-26T01:45:51;101437.19;;;10.67;61.32
48862;BME280;34681;49.188;-0.374;2023-04-26T01:48:17;101441.94;;;10.65;61.22
48862;BME280;34681;49.188;-0.374;2023-04-26T01:50:42;101440.03;;;10.33;61.90
48862;BME280;34681;49.188;-0.374;2023-04-26T01:53:07;101432.88;;;10.10;62.28
48862;BME280;34681;49.188;-0.374;2023-04-26T01:55:33;101426.25;;;10.12;62.61
48862;BME280;34681;49.188;-0.374;2023-04-26T01:57:58;101429.00;;;10.24;62.37
48862;BME280;34681;49.188;-0.374;2023-04-26T02:00:26;101424.88;;;10.29;62.42
48862;BME280;34681;49.188;-0.374;2023-04-26T02:02:56;101430.06;;;10.44;61.76
48862;BME280;34681;49.188;-0.374;2023-04-26T02:05:22;101418.41;;;10.30;62.21
48862;BME280;34681;49.188;-0.374;2023-04-26T02:07:48;101411.72;;;10.34;62.20
48862;BME280;34681;49.188;-0.374;2023-04-26T02:10:13;101419.34;;;10.52;61.74
48862;BME280;34681;49.188;-0.374;2023-04-26T02:12:38;101416.63;;;10.40;62.08
48862;BME280;34681;49.188;-0.374;2023-04-26T02:15:04;101415.41;;;10.33;61.94
48862;BME280;34681;49.188;-0.374;2023-04-26T02:17:31;101407.72;;;10.16;62.49
48862;BME280;34681;49.188;-0.374;2023-04-26T02:19:56;101405.53;;;10.10;62.96
48862;BME280;34681;49.188;-0.374;2023-04-26T02:22:22;101413.31;;;10.26;62.53
48862;BME280;34681;49.188;-0.374;2023-04-26T02:24:50;101413.06;;;10.18;62.55
48862;BME280;34681;49.188;-0.374;2023-04-26T02:27:17;101417.81;;;10.27;62.84
48862;BME280;34681;49.188;-0.374;2023-04-26T02:29:42;101410.44;;;10.38;61.96
48862;BME280;34681;49.188;-0.374;2023-04-26T02:32:07;101419.16;;;10.32;62.10
48862;BME280;34681;49.188;-0.374;2023-04-26T02:34:33;101413.19;;;10.16;62.10
48862;BME280;34681;49.188;-0.374;2023-04-26T02:36:58;101418.06;;;10.24;62.32
48862;BME280;34681;49.188;-0.374;2023-04-26T02:39:24;101418.34;;;10.53;61.53
48862;BME280;34681;49.188;-0.374;2023-04-26T02:41:50;101410.88;;;10.76;60.83
48862;BME280;34681;49.188;-0.374;2023-04-26T02:44:15;101411.97;;;10.63;60.95
48862;BME280;34681;49.188;-0.374;2023-04-26T02:46:40;101409.88;;;10.56;60.87
48862;BME280;34681;49.188;-0.374;2023-04-26T02:49:06;101403.81;;;10.41;61.26
48862;BME280;34681;49.188;-0.374;2023-04-26T02:51:31;101409.59;;;10.59;60.85
48862;BME280;34681;49.188;-0.374;2023-04-26T02:53:57;101397.63;;;10.39;61.21
48862;BME280;34681;49.188;-0.374;2023-04-26T02:56:23;101403.81;;;10.41;61.43
48862;BME280;34681;49.188;-0.374;2023-04-26T02:58:48;101404.81;;;10.40;61.18
48862;BME280;34681;49.188;-0.374;2023-04-26T03:01:14;101396.25;;;10.33;61.20
48862;BME280;34681;49.188;-0.374;2023-04-26T03:03:39;101401.59;;;10.67;60.67
48862;BME280;34681;49.188;-0.374;2023-04-26T03:06:05;101402.97;;;10.40;61.07
48862;BME280;34681;49.188;-0.374;2023-04-26T03:08:30;101398.91;;;10.24;61.74
48862;BME280;34681;49.188;-0.374;2023-04-26T03:10:56;101406.31;;;10.44;61.27
48862;BME280;34681;49.188;-0.374;2023-04-26T03:13:22;101399.97;;;10.44;61.21
48862;BME280;34681;49.188;-0.374;2023-04-26T03:15:47;101387.72;;;10.16;62.00
48862;BME280;34681;49.188;-0.374;2023-04-26T03:18:14;101384.47;;;10.22;62.09
48862;BME280;34681;49.188;-0.374;2023-04-26T03:20:40;101382.97;;;10.18;62.03
48862;BME280;34681;49.188;-0.374;2023-04-26T03:23:06;101385.72;;;10.18;61.90
48862;BME280;34681;49.188;-0.374;2023-04-26T03:25:32;101386.09;;;10.24;61.89
48862;BME280;34681;49.188;-0.374;2023-04-26T03:27:58;101383.88;;;10.29;62.16
48862;BME280;34681;49.188;-0.374;2023-04-26T03:30:23;101378.84;;;10.66;60.97
48862;BME280;34681;49.188;-0.374;2023-04-26T03:32:48;101381.50;;;10.25;61.63
48862;BME280;34681;49.188;-0.374;2023-04-26T03:35:14;101381.66;;;10.12;62.11
48862;BME280;34681;49.188;-0.374;2023-04-26T03:37:39;101369.28;;;9.85;62.93
48862;BME280;34681;49.188;-0.374;2023-04-26T03:40:08;101365.38;;;9.99;62.70
48862;BME280;34681;49.188;-0.374;2023-04-26T03:42:34;101366.66;;;9.95;62.63
48862;BME280;34681;49.188;-0.374;2023-04-26T03:45:00;101366.88;;;10.03;62.46
48862;BME280;34681;49.188;-0.374;2023-04-26T03:47:27;101367.53;;;9.84;62.83
48862;BME280;34681;49.188;-0.374;2023-04-26T03:49:52;101355.34;;;9.89;62.74
48862;BME280;34681;49.188;-0.374;2023-04-26T03:52:17;101353.44;;;10.00;62.91
48862;BME280;34681;49.188;-0.374;2023-04-26T03:54:43;101355.38;;;10.21;62.44
48862;BME280;34681;49.188;-0.374;2023-04-26T03:57:09;101342.53;;;10.64;61.50
48862;BME280;34681;49.188;-0.374;2023-04-26T03:59:34;101349.72;;;10.45;60.93
48862;BME280;34681;49.188;-0.374;2023-04-26T04:01:59;101355.22;;;10.45;61.49
48862;BME280;34681;49.188;-0.374;2023-04-26T04:04:25;101343.81;;;10.17;62.14
48862;BME280;34681;49.188;-0.374;2023-04-26T04:06:51;101344.44;;;10.21;62.36
48862;BME280;34681;49.188;-0.374;2023-04-26T04:09:16;101350.34;;;10.69;61.13
48862;BME280;34681;49.188;-0.374;2023-04-26T04:11:42;101348.88;;;10.44;61.28
48862;BME280;34681;49.188;-0.374;2023-04-26T04:14:07;101350.66;;;10.76;60.88
48862;BME280;34681;49.188;-0.374;2023-04-26T04:16:32;101346.97;;;10.77;60.95
48862;BME280;34681;49.188;-0.374;2023-04-26T04:18:58;101342.53;;;10.64;60.67
48862;BME280;34681;49.188;-0.374;2023-04-26T04:21:23;101342.09;;;10.59;60.86
48862;BME280;34681;49.188;-0.374;2023-04-26T04:23:48;101335.13;;;10.55;60.80
48862;BME280;34681;49.188;-0.374;2023-04-26T04:26:14;101341.75;;;10.53;61.47
48862;BME280;34681;49.188;-0.374;2023-04-26T04:28:40;101337.94;;;10.86;61.04
48862;BME280;34681;49.188;-0.374;2023-04-26T04:31:06;101332.97;;;10.59;61.08
48862;BME280;34681;49.188;-0.374;2023-04-26T04:33:34;101341.72;;;10.21;62.21
48862;BME280;34681;49.188;-0.374;2023-04-26T04:35:59;101341.94;;;10.18;62.32
48862;BME280;34681;49.188;-0.374;2023-04-26T04:38:25;101335.28;;;10.10;62.71
48862;BME280;34681;49.188;-0.374;2023-04-26T04:40:50;101341.41;;;10.03;63.04
48862;BME280;34681;49.188;-0.374;2023-04-26T04:43:16;101334.56;;;9.97;63.23
48862;BME280;34681;49.188;-0.374;2023-04-26T04:45:42;101344.44;;;10.32;62.61
48862;BME280;34681;49.188;-0.374;2023-04-26T04:48:07;101345.47;;;10.08;63.10
48862;BME280;34681;49.188;-0.374;2023-04-26T04:50:33;101350.03;;;10.30;62.79
48862;BME280;34681;49.188;-0.374;2023-04-26T04:52:59;101348.78;;;10.34;62.21
48862;BME280;34681;49.188;-0.374;2023-04-26T04:55:25;101346.44;;;10.19;62.60
48862;BME280;34681;49.188;-0.374;2023-04-26T04:57:50;101349.59;;;10.03;63.15
48862;BME280;34681;49.188;-0.374;2023-04-26T05:00:16;101350.78;;;9.78;63.77
48862;BME280;34681;49.188;-0.374;2023-04-26T05:02:41;101347.06;;;9.79;63.94
48862;BME280;34681;49.188;-0.374;2023-04-26T05:05:07;101342.13;;;10.05;63.30
48862;BME280;34681;49.188;-0.374;2023-04-26T05:07:33;101352.56;;;10.00;63.45
48862;BME280;34681;49.188;-0.374;2023-04-26T05:09:59;101344.50;;;9.98;63.35
48862;BME280;34681;49.188;-0.374;2023-04-26T05:12:25;101357.59;;;9.83;63.79
48862;BME280;34681;49.188;-0.374;2023-04-26T05:14:51;101358.25;;;10.30;63.10
48862;BME280;34681;49.188;-0.374;2023-04-26T05:17:16;101356.63;;;10.17;62.92
48862;BME280;34681;49.188;-0.374;2023-04-26T05:19:41;101358.16;;;10.53;62.09
48862;BME280;34681;49.188;-0.374;2023-04-26T05:22:07;101356.63;;;10.81;61.50
48862;BME280;34681;49.188;-0.374;2023-04-26T05:24:32;101362.50;;;10.97;60.51
48862;BME280;34681;49.188;-0.374;2023-04-26T05:26:58;101367.16;;;11.06;60.74
48862;BME280;34681;49.188;-0.374;2023-04-26T05:29:27;101361.44;;;11.40;60.15
48862;BME280;34681;49.188;-0.374;2023-04-26T05:31:53;101359.94;;;11.26;59.76
48862;BME280;34681;49.188;-0.374;2023-04-26T05:34:18;101367.78;;;11.40;59.88
48862;BME280;34681;49.188;-0.374;2023-04-26T05:36:43;101361.91;;;11.45;58.99
48862;BME280;34681;49.188;-0.374;2023-04-26T05:39:09;101366.63;;;10.91;59.98
48862;BME280;34681;49.188;-0.374;2023-04-26T05:41:34;101368.78;;;10.88;60.89
48862;BME280;34681;49.188;-0.374;2023-04-26T05:44:00;101374.25;;;10.88;60.61
48862;BME280;34681;49.188;-0.374;2023-04-26T05:46:25;101375.03;;;10.58;61.22
48862;BME280;34681;49.188;-0.374;2023-04-26T05:48:51;101383.66;;;10.42;62.10
48862;BME280;34681;49.188;-0.374;2023-04-26T05:51:16;101376.13;;;10.87;61.45
48862;BME280;34681;49.188;-0.374;2023-04-26T05:53:41;101380.53;;;11.20;60.19
48862;BME280;34681;49.188;-0.374;2023-04-26T05:56:07;101377.91;;;11.19;60.14
48862;BME280;34681;49.188;-0.374;2023-04-26T05:58:32;101370.22;;;11.34;60.07
48862;BME280;34681;49.188;-0.374;2023-04-26T06:00:58;101369.00;;;11.57;59.59
48862;BME280;34681;49.188;-0.374;2023-04-26T06:03:23;101367.50;;;11.13;60.21
48862;BME280;34681;49.188;-0.374;2023-04-26T06:05:48;101371.19;;;11.02;60.68
48862;BME280;34681;49.188;-0.374;2023-04-26T06:08:14;101368.50;;;11.12;60.71
48862;BME280;34681;49.188;-0.374;2023-04-26T06:10:39;101363.13;;;11.01;60.83
48862;BME280;34681;49.188;-0.374;2023-04-26T06:13:04;101364.78;;;10.71;61.80
48862;BME280;34681;49.188;-0.374;2023-04-26T06:15:30;101370.78;;;10.33;62.82
48862;BME280;34681;49.188;-0.374;2023-04-26T06:17:56;101374.28;;;10.24;63.47
48862;BME280;34681;49.188;-0.374;2023-04-26T06:20:21;101383.81;;;10.40;63.23
48862;BME280;34681;49.188;-0.374;2023-04-26T06:22:47;101373.00;;;10.39;63.25
48862;BME280;34681;49.188;-0.374;2023-04-26T06:25:12;101383.56;;;10.44;63.08
48862;BME280;34681;49.188;-0.374;2023-04-26T06:27:38;101382.16;;;10.49;63.21
48862;BME280;34681;49.188;-0.374;2023-04-26T06:30:05;101391.88;;;10.74;62.37
48862;BME280;34681;49.188;-0.374;2023-04-26T06:32:30;101383.03;;;10.50;62.89
48862;BME280;34681;49.188;-0.374;2023-04-26T06:34:56;101384.59;;;10.63;62.53
48862;BME280;34681;49.188;-0.374;2023-04-26T06:37:21;101384.09;;;10.58;62.85
48862;BME280;34681;49.188;-0.374;2023-04-26T06:39:47;101379.22;;;10.41;63.49
48862;BME280;34681;49.188;-0.374;2023-04-26T06:42:12;101375.88;;;10.37;63.60
48862;BME280;34681;49.188;-0.374;2023-04-26T06:44:38;101384.44;;;10.44;63.89
48862;BME280;34681;49.188;-0.374;2023-04-26T06:47:03;101386.19;;;10.66;63.42
48862;BME280;34681;49.188;-0.374;2023-04-26T06:49:31;101382.94;;;10.72;63.51
48862;BME280;34681;49.188;-0.374;2023-04-26T06:51:56;101384.94;;;10.70;62.75
48862;BME280;34681;49.188;-0.374;2023-04-26T06:54:27;101387.47;;;10.62;63.21
48862;BME280;34681;49.188;-0.374;2023-04-26T06:56:52;101378.03;;;10.76;62.54
48862;BME280;34681;49.188;-0.374;2023-04-26T06:59:18;101390.75;;;10.97;62.01
48862;BME280;34681;49.188;-0.374;2023-04-26T07:01:44;101387.59;;;10.81;62.46
48862;BME280;34681;49.188;-0.374;2023-04-26T07:04:09;101387.63;;;11.02;62.44
48862;BME280;34681;49.188;-0.374;2023-04-26T07:06:36;101377.19;;;10.96;62.06
48862;BME280;34681;49.188;-0.374;2023-04-26T07:09:03;101385.59;;;11.04;61.76
48862;BME280;34681;49.188;-0.374;2023-04-26T07:11:30;101380.53;;;11.51;61.04
48862;BME280;34681;49.188;-0.374;2023-04-26T07:13:55;101382.91;;;12.15;59.52
48862;BME280;34681;49.188;-0.374;2023-04-26T07:16:21;101379.19;;;12.74;58.17
48862;BME280;34681;49.188;-0.374;2023-04-26T07:18:47;101368.28;;;13.31;57.10
48862;BME280;34681;49.188;-0.374;2023-04-26T07:21:14;101374.59;;;12.46;57.51
48862;BME280;34681;49.188;-0.374;2023-04-26T07:23:40;101372.50;;;11.99;59.19
48862;BME280;34681;49.188;-0.374;2023-04-26T07:26:05;101377.19;;;12.28;58.46
48862;BME280;34681;49.188;-0.374;2023-04-26T07:28:32;101383.53;;;12.19;58.84
48862;BME280;34681;49.188;-0.374;2023-04-26T07:30:58;101376.47;;;12.26;58.19
48862;BME280;34681;49.188;-0.374;2023-04-26T07:33:24;101375.78;;;11.84;59.06
48862;BME280;34681;49.188;-0.374;2023-04-26T07:35:57;101372.88;;;12.83;57.51
48862;BME280;34681;49.188;-0.374;2023-04-26T07:38:26;101375.41;;;13.04;56.08
48862;BME280;34681;49.188;-0.374;2023-04-26T07:40:52;101379.47;;;13.19;55.89
48862;BME280;34681;49.188;-0.374;2023-04-26T07:43:19;101386.28;;;12.86;56.90
48862;BME280;34681;49.188;-0.374;2023-04-26T07:45:45;101386.22;;;13.15;57.43
48862;BME280;34681;49.188;-0.374;2023-04-26T07:48:12;101383.22;;;13.09;57.18
48862;BME280;34681;49.188;-0.374;2023-04-26T07:50:38;101379.03;;;13.24;56.71
48862;BME280;34681;49.188;-0.374;2023-04-26T07:53:04;101381.34;;;13.09;57.66
48862;BME280;34681;49.188;-0.374;2023-04-26T07:55:30;101381.81;;;12.76;57.33
48862;BME280;34681;49.188;-0.374;2023-04-26T07:57:55;101371.69;;;12.86;57.76
48862;BME280;34681;49.188;-0.374;2023-04-26T08:00:22;101379.34;;;12.63;57.49
48862;BME280;34681;49.188;-0.374;2023-04-26T08:02:48;101382.81;;;12.17;58.85
48862;BME280;34681;49.188;-0.374;2023-04-26T08:05:15;101380.19;;;12.15;58.88
48862;BME280;34681;49.188;-0.374;2023-04-26T08:07:41;101377.31;;;12.65;58.44
48862;BME280;34681;49.188;-0.374;2023-04-26T08:10:08;101372.25;;;12.80;57.18
48862;BME280;34681;49.188;-0.374;2023-04-26T08:12:35;101372.41;;;12.88;56.75
48862;BME280;34681;49.188;-0.374;2023-04-26T08:15:01;101376.53;;;13.31;56.59
48862;BME280;34681;49.188;-0.374;2023-04-26T08:17:28;101373.16;;;13.46;55.14
48862;BME280;34681;49.188;-0.374;2023-04-26T08:19:54;101382.94;;;13.02;56.09
48862;BME280;34681;49.188;-0.374;2023-04-26T08:22:19;101384.69;;;12.74;57.55
48862;BME280;34681;49.188;-0.374;2023-04-26T08:24:49;101374.69;;;13.12;57.36
48862;BME280;34681;49.188;-0.374;2023-04-26T08:27:15;101370.91;;;13.23;55.59
48862;BME280;34681;49.188;-0.374;2023-04-26T08:29:40;101377.47;;;12.73;56.94
48862;BME280;34681;49.188;-0.374;2023-04-26T08:32:06;101368.38;;;12.44;57.63
48862;BME280;34681;49.188;-0.374;2023-04-26T08:34:31;101371.41;;;12.70;57.02
48862;BME280;34681;49.188;-0.374;2023-04-26T08:36:57;101371.25;;;13.00;56.49
48862;BME280;34681;49.188;-0.374;2023-04-26T08:39:22;101366.16;;;13.25;55.44
48862;BME280;34681;49.188;-0.374;2023-04-26T08:42:03;101361.38;;;13.27;56.21
48862;BME280;34681;49.188;-0.374;2023-04-26T08:44:31;101359.56;;;13.82;55.00
48862;BME280;34681;49.188;-0.374;2023-04-26T08:49:46;101360.75;;;14.43;52.97
48862;BME280;34681;49.188;-0.374;2023-04-26T08:52:18;101367.41;;;13.77;53.72
48862;BME280;34681;49.188;-0.374;2023-04-26T08:54:48;101369.03;;;13.33;55.49
48862;BME280;34681;49.188;-0.374;2023-04-26T08:57:15;101356.06;;;13.53;54.86
48862;BME280;34681;49.188;-0.374;2023-04-26T08:59:41;101354.09;;;13.72;54.87
48862;BME280;34681;49.188;-0.374;2023-04-26T09:02:09;101358.72;;;13.72;54.41
48862;BME280;34681;49.188;-0.374;2023-04-26T09:04:35;101349.09;;;13.58;55.43
48862;BME280;34681;49.188;-0.374;2023-04-26T09:07:03;101352.72;;;13.86;54.46
48862;BME280;34681;49.188;-0.374;2023-04-26T09:09:36;101352.69;;;14.14;54.61
48862;BME280;34681;49.188;-0.374;2023-04-26T09:12:06;101358.53;;;14.28;53.35
48862;BME280;34681;49.188;-0.374;2023-04-26T09:14:31;101359.28;;;14.03;53.86
48862;BME280;34681;49.188;-0.374;2023-04-26T09:16:57;101357.97;;;14.07;55.03
48862;BME280;34681;49.188;-0.374;2023-04-26T09:19:39;101370.31;;;14.39;53.57
48862;BME280;34681;49.188;-0.374;2023-04-26T09:22:07;101355.47;;;13.86;55.24
48862;BME280;34681;49.188;-0.374;2023-04-26T09:24:49;101350.56;;;13.80;55.48
48862;BME280;34681;49.188;-0.374;2023-04-26T09:27:16;101356.84;;;13.72;55.83
48862;BME280;34681;49.188;-0.374;2023-04-26T09:30:14;101356.91;;;13.90;55.86
48862;BME280;34681;49.188;-0.374;2023-04-26T09:35:33;101368.00;;;14.61;55.28
48862;BME280;34681;49.188;-0.374;2023-04-26T09:40:28;101358.63;;;13.27;57.20
48862;BME280;34681;49.188;-0.374;2023-04-26T09:43:01;101367.19;;;13.88;56.92
48862;BME280;34681;49.188;-0.374;2023-04-26T09:45:28;101372.38;;;13.91;56.40
48862;BME280;34681;49.188;-0.374;2023-04-26T09:47:54;101367.59;;;13.66;57.05
48862;BME280;34681;49.188;-0.374;2023-04-26T09:50:27;101373.50;;;13.71;56.23
48862;BME280;34681;49.188;-0.374;2023-04-26T09:52:53;101365.69;;;13.29;57.07
48862;BME280;34681;49.188;-0.374;2023-04-26T09:55:29;101367.78;;;13.55;56.66
48862;BME280;34681;49.188;-0.374;2023-04-26T09:57:56;101371.00;;;14.05;56.24
48862;BME280;34681;49.188;-0.374;2023-04-26T10:00:25;101370.66;;;14.36;55.28
48862;BME280;34681;49.188;-0.374;2023-04-26T10:02:54;101369.09;;;14.33;54.63
48862;BME280;34681;49.188;-0.374;2023-04-26T10:05:20;101361.84;;;14.32;55.16
48862;BME280;34681;49.188;-0.374;2023-04-26T10:07:46;101359.88;;;14.24;54.38
48862;BME280;34681;49.188;-0.374;2023-04-26T10:10:12;101364.69;;;14.40;54.70
48862;BME280;34681;49.188;-0.374;2023-04-26T10:12:39;101360.31;;;14.20;54.49
48862;BME280;34681;49.188;-0.374;2023-04-26T10:15:08;101362.53;;;13.89;55.47
48862;BME280;34681;49.188;-0.374;2023-04-26T10:17:33;101350.50;;;14.88;54.17
48862;BME280;34681;49.188;-0.374;2023-04-26T10:20:01;101361.69;;;14.87;52.92
48862;BME280;34681;49.188;-0.374;2023-04-26T10:22:32;101361.19;;;14.66;53.68
48862;BME280;34681;49.188;-0.374;2023-04-26T10:24:59;101355.50;;;14.49;53.85
48862;BME280;34681;49.188;-0.374;2023-04-26T10:30:15;101342.22;;;15.32;51.80
48862;BME280;34681;49.188;-0.374;2023-04-26T10:35:29;101354.34;;;14.96;53.68
48862;BME280;34681;49.188;-0.374;2023-04-26T10:40:28;101345.59;;;14.74;53.69
48862;BME280;34681;49.188;-0.374;2023-04-26T10:45:41;101335.22;;;15.20;52.69
48862;BME280;34681;49.188;-0.374;2023-04-26T10:48:17;101335.63;;;15.25;52.59
48862;BME280;34681;49.188;-0.374;2023-04-26T10:59:09;101331.06;;;16.43;50.57
48862;BME280;34681;49.188;-0.374;2023-04-26T11:01:35;101338.13;;;16.37;51.30
48862;BME280;34681;49.188;-0.374;2023-04-26T11:04:09;101332.06;;;16.17;50.24
48862;BME280;34681;49.188;-0.374;2023-04-26T11:06:54;101324.19;;;15.80;51.23
48862;BME280;34681;49.188;-0.374;2023-04-26T11:12:02;101329.06;;;14.74;54.03
48862;BME280;34681;49.188;-0.374;2023-04-26T11:14:29;101321.84;;;14.99;54.13
48862;BME280;34681;49.188;-0.374;2023-04-26T11:16:54;101328.03;;;15.01;53.54
48862;BME280;34681;49.188;-0.374;2023-04-26T11:19:20;101321.63;;;15.53;52.71
48862;BME280;34681;49.188;-0.374;2023-04-26T11:21:45;101315.06;;;15.54;52.52
48862;BME280;34681;49.188;-0.374;2023-04-26T11:24:14;101309.25;;;15.23;53.74
48862;BME280;34681;49.188;-0.374;2023-04-26T11:26:39;101312.91;;;15.31;53.24
48862;BME280;34681;49.188;-0.374;2023-04-26T11:29:08;101307.91;;;15.61;52.35
48862;BME280;34681;49.188;-0.374;2023-04-26T11:31:37;101315.06;;;15.88;51.47
48862;BME280;34681;49.188;-0.374;2023-04-26T11:34:03;101315.19;;;16.37;51.43
48862;BME280;34681;49.188;-0.374;2023-04-26T11:36:29;101315.06;;;16.71;49.59
48862;BME280;34681;49.188;-0.374;2023-04-26T11:38:55;101304.47;;;16.25;50.45
48862;BME280;34681;49.188;-0.374;2023-04-26T11:41:22;101303.13;;;16.70;49.92
48862;BME280;34681;49.188;-0.374;2023-04-26T11:43:48;101299.63;;;17.25;47.86
48862;BME280;34681;49.188;-0.374;2023-04-26T11:46:13;101309.78;;;17.88;46.95
48862;BME280;34681;49.188;-0.374;2023-04-26T11:48:39;101297.94;;;17.63;46.92
48862;BME280;34681;49.188;-0.374;2023-04-26T11:51:05;101308.44;;;17.76;46.59
48862;BME280;34681;49.188;-0.374;2023-04-26T11:53:35;101302.84;;;17.92;46.37
48862;BME280;34681;49.188;-0.374;2023-04-26T11:56:03;101304.69;;;18.54;45.94
48862;BME280;34681;49.188;-0.374;2023-04-26T11:58:29;101307.22;;;18.10;45.96
48862;BME280;34681;49.188;-0.374;2023-04-26T12:00:59;101295.66;;;17.20;47.40
48862;BME280;34681;49.188;-0.374;2023-04-26T12:03:33;101303.97;;;17.75;47.66
48862;BME280;34681;49.188;-0.374;2023-04-26T12:06:02;101308.22;;;17.47;46.75
48862;BME280;34681;49.188;-0.374;2023-04-26T12:08:28;101314.16;;;17.11;48.06
48862;BME280;34681;49.188;-0.374;2023-04-26T12:11:01;101302.34;;;17.41;48.30
48862;BME280;34681;49.188;-0.374;2023-04-26T12:13:29;101303.63;;;18.32;47.25
48862;BME280;34681;49.188;-0.374;2023-04-26T12:15:55;101307.63;;;18.30;46.49
48862;BME280;34681;49.188;-0.374;2023-04-26T12:18:20;101296.53;;;17.67;46.99
48862;BME280;34681;49.188;-0.374;2023-04-26T12:20:57;101303.81;;;17.60;47.65
48862;BME280;34681;49.188;-0.374;2023-04-26T12:23:22;101304.03;;;17.98;48.16
48862;BME280;34681;49.188;-0.374;2023-04-26T12:25:56;101307.06;;;18.57;46.33
48862;BME280;34681;49.188;-0.374;2023-04-26T12:28:24;101293.41;;;18.56;46.55
48862;BME280;34681;49.188;-0.374;2023-04-26T12:30:50;101292.03;;;18.29;46.33
48862;BME280;34681;49.188;-0.374;2023-04-26T12:33:16;101299.50;;;18.28;46.43
48862;BME280;34681;49.188;-0.374;2023-04-26T12:35:43;101296.56;;;17.59;47.09
48862;BME280;34681;49.188;-0.374;2023-04-26T12:38:09;101293.38;;;17.79;48.27
48862;BME280;34681;49.188;-0.374;2023-04-26T12:40:35;101298.06;;;17.78;46.97
48862;BME280;34681;49.188;-0.374;2023-04-26T12:43:00;101293.81;;;17.51;47.78
48862;BME280;34681;49.188;-0.374;2023-04-26T12:45:26;101294.03;;;17.41;48.09
48862;BME280;34681;49.188;-0.374;2023-04-26T12:47:52;101294.81;;;17.11;48.70
48862;BME280;34681;49.188;-0.374;2023-04-26T12:50:18;101307.44;;;16.32;50.94
48862;BME280;34681;49.188;-0.374;2023-04-26T12:52:43;101298.13;;;16.49;51.02
48862;BME280;34681;49.188;-0.374;2023-04-26T12:55:11;101295.53;;;16.64;50.41
48862;BME280;34681;49.188;-0.374;2023-04-26T12:57:38;101296.84;;;16.11;52.40
48862;BME280;34681;49.188;-0.374;2023-04-26T13:00:09;101311.94;;;16.49;51.89
48862;BME280;34681;49.188;-0.374;2023-04-26T13:02:36;101303.03;;;15.89;52.38
48862;BME280;34681;49.188;-0.374;2023-04-26T13:05:02;101329.84;;;16.37;52.08
48862;BME280;34681;49.188;-0.374;2023-04-26T13:07:29;101322.28;;;16.39;51.48